Hawaii Aviation Weather

Weather Information Updated from 1800wxbrief.com

Please note, all weather information provided should be validated for accuracy before flying. Click on each Blue link for more information.

REAL TIME LOCAL RADAR – Base Reflectivity (10min)
Currently
Currently
Currently
Currently
Currently
Currently
Currently

General Forecasts (Prog Charts)
Hawaii Lo-Level Sig Progs

Thunderstorm & Severe Weather Forecast
Hawaii Severe Weather Outlook

General Forecasts (Prog Charts)
NE Pacific Surface Analysis

General Forecasts (Prog Charts)
Hawaii Surface Forecast

Aviation Weather from NOAA

PHNL – Honolulu

Available data for PHNL from the past 2 hours
HONOLULU, HI
Metar
PHNL 242253Z 05015G19KT 10SM FEW025 SCT042 29/17 A3002 RMK AO2 SLP164 T02940172 $

22:53 UTC

Wind: 50° 15kt

Visibility: 10 SM

Sky: FEW 2500 ft

Temp: 29 deg C / 84.2 deg F

Dewpoint: 17 deg C / 62.6 deg F

Pressure: 30.02 inHg

TAF
PHNL 242129Z 2421/2524 05014G20KT P6SM FEW025 SCT040 FM250600 05008KT P6SM FEW025 SCT050 FM252100 06012G17KT P6SM FEW025 SCT045

PHJR – Kalealoa (Rogers)

Available data for PHJR from the past 2 hours
KALAELOA, HI
Metar
PHJR 242253Z 10008G16KT 050V150 10SM SCT045 29/17 A3002 RMK AO2 SLP173 T02940167

22:53 UTC

Wind: 100° 8kt

Visibility: 10 SM

Sky: SCT 4500 ft

Temp: 29 deg C / 84.2 deg F

Dewpoint: 17 deg C / 62.6 deg F

Pressure: 30.02 inHg

TAF
PHJR 241748Z 2418/2518 06006KT P6SM FEW025 BKN040 FM242100 09010KT P6SM FEW025 SCT035 FM250500 05005KT P6SM FEW025 SCT035

PHNG – Kaneohe

Available data for PHNG from the past 2 hours
KANEOHE MCAS, HI
Metar
PHNG 242257Z 05007KT 10SM FEW024 SCT031 BKN041 27/20 A3002 RMK AO2 SLP159 T02670200 $

22:57 UTC

Wind: 50° 7kt

Visibility: 10 SM

Sky: FEW 2400 ft

Temp: 27 deg C / 80.6 deg F

Dewpoint: 20 deg C / 68 deg F

Pressure: 30.02 inHg

TAF
TAF PHNG 2421/2521 05010KT 9999 FEW025 SCT045 QNH2997INS TEMPO 2421/2502 BKN035 FM250400 05008KT 9999 SCT025 BKN035 QNH2999INS TEMPO 2508/2512 VRB05KT 8000 -SHRA BKN025 OVC040 T27/2423Z T23/2513Z

PHHI – Wheeler

Available data for PHHI from the past 2 hours
WHEELER AFB/OAHU, HI
Metar
PHHI 242256Z AUTO 08010KT 10SM SCT034 SCT140 SCT170 BKN200 26/17 A3003 RMK AO2 SLP161 T02610169 $

22:56 UTC

Wind: 80° 10kt

Visibility: 10 SM

Sky: SCT 3400 ft

Temp: 26 deg C / 78.8 deg F

Dewpoint: 17 deg C / 62.6 deg F

Pressure: 30.03 inHg

TAF
TAF PHHI 242300Z 2423/2605 07010KT 9999 SCT030 QNH3001INS TEMPO 2423/2501 06010G15KT BECMG 2506/2507 VRB06KT 9999 BKN025 QNH3005INS BECMG 2519/2520 06008KT 9999 SCT025 BKN030 QNH3004INS TX25/2423Z TN18/2511Z
Honolulu 3 Day Forecast (Wind, Temp, etc)
HAWAII INFRARED Satellite
HAWAII Visible Satellite
HAWAII National Weather Service Forecast